createdAt,value
2019-03-03T00:00:19.127Z,101035.91
2019-03-03T00:02:48.225Z,101035.07
2019-03-03T00:05:16.034Z,101033.22
2019-03-03T00:07:43.822Z,101024.37
2019-03-03T00:10:12.036Z,101020.58
2019-03-03T00:12:40.014Z,101020.81
2019-03-03T00:15:08.086Z,101014.60
2019-03-03T00:17:37.674Z,100998.64
2019-03-03T00:20:06.383Z,100997.18
2019-03-03T00:22:34.186Z,100993.95
2019-03-03T00:25:02.263Z,100999.95
2019-03-03T00:27:30.204Z,101007.43
2019-03-03T00:29:58.102Z,101015.91
2019-03-03T00:32:25.904Z,101007.12
2019-03-03T00:34:53.814Z,101016.21
2019-03-03T00:37:41.441Z,101011.19
2019-03-03T00:40:34.866Z,101003.81
2019-03-03T00:43:25.554Z,100994.58
2019-03-03T00:46:11.821Z,100990.39
2019-03-03T00:48:49.270Z,100981.08
2019-03-03T00:51:32.436Z,100983.38
2019-03-03T00:54:08.144Z,100980.94
2019-03-03T00:56:55.510Z,100984.01
2019-03-03T00:59:43.067Z,100989.79
2019-03-03T01:02:23.450Z,100980.18
2019-03-03T01:05:14.225Z,100975.07
2019-03-03T01:08:19.750Z,100976.31
2019-03-03T01:11:10.457Z,100966.29
2019-03-03T01:14:03.733Z,100963.45
2019-03-03T01:16:53.862Z,100956.98
2019-03-03T01:19:28.101Z,100957.90
2019-03-03T01:22:15.579Z,100957.50
2019-03-03T01:24:50.224Z,100949.66
2019-03-03T01:27:18.151Z,100944.14
2019-03-03T01:29:46.072Z,100950.98
2019-03-03T01:32:13.900Z,100939.20
2019-03-03T01:34:41.691Z,100947.15
2019-03-03T01:37:09.946Z,100944.84
2019-03-03T01:39:37.867Z,100938.95
2019-03-03T01:42:05.798Z,100941.66
2019-03-03T01:44:34.221Z,100931.91
2019-03-03T01:47:02.121Z,100927.19
2019-03-03T01:49:29.940Z,100921.52
2019-03-03T01:51:57.944Z,100920.73
2019-03-03T01:54:25.723Z,100922.90
2019-03-03T01:56:53.527Z,100914.80
2019-03-03T01:59:21.447Z,100915.59
2019-03-03T02:01:49.217Z,100918.81
2019-03-03T02:04:17.014Z,100908.53
2019-03-03T02:06:44.952Z,100904.20
2019-03-03T02:09:13.733Z,100894.59
2019-03-03T02:11:42.596Z,100891.59
2019-03-03T02:14:10.515Z,100888.22
2019-03-03T02:16:38.333Z,100889.76
2019-03-03T02:19:06.227Z,100885.23
2019-03-03T02:21:34.229Z,100894.47
2019-03-03T02:24:01.982Z,100894.75
2019-03-03T02:26:29.972Z,100893.65
2019-03-03T02:28:57.745Z,100893.52
2019-03-03T02:31:27.459Z,100880.38
2019-03-03T02:33:55.643Z,100884.21
2019-03-03T02:36:23.398Z,100880.58
2019-03-03T02:38:51.384Z,100870.95
2019-03-03T02:41:19.174Z,100871.66
2019-03-03T02:43:46.947Z,100868.22
2019-03-03T02:46:14.889Z,100870.36
2019-03-03T02:48:42.863Z,100859.22
2019-03-03T02:51:10.833Z,100859.66
2019-03-03T02:53:38.632Z,100854.52
2019-03-03T02:56:06.430Z,100860.30
2019-03-03T02:58:35.476Z,100858.16
2019-03-03T03:01:10.816Z,100843.74
2019-03-03T03:03:38.734Z,100836.89
2019-03-03T03:06:35.227Z,100843.91
2019-03-03T03:09:09.859Z,100836.01
2019-03-03T03:11:56.221Z,100824.08
2019-03-03T03:14:49.802Z,100824.23
2019-03-03T03:17:46.308Z,100822.28
2019-03-03T03:20:27.102Z,100822.52
2019-03-03T03:23:26.568Z,100821.52
2019-03-03T03:26:12.957Z,100814.67
2019-03-03T03:29:01.431Z,100812.00
2019-03-03T03:31:52.923Z,100808.84
2019-03-03T03:34:25.648Z,100809.02
2019-03-03T03:37:07.020Z,100803.45
2019-03-03T03:40:03.783Z,100800.32
2019-03-03T03:42:48.090Z,100795.71
2019-03-03T03:45:31.670Z,100800.39
2019-03-03T03:48:12.076Z,100793.77
2019-03-03T03:50:58.308Z,100788.77
2019-03-03T03:53:37.588Z,100784.39
2019-03-03T03:56:15.746Z,100786.84
2019-03-03T03:59:01.974Z,100789.78
2019-03-03T04:01:55.615Z,100773.55
2019-03-03T04:04:33.525Z,100770.16
2019-03-03T04:07:22.862Z,100778.93
2019-03-03T04:09:56.071Z,100771.08
2019-03-03T04:12:46.821Z,100777.31
2019-03-03T04:15:23.654Z,100770.70
2019-03-03T04:18:18.243Z,100764.94
2019-03-03T04:21:10.872Z,100768.92
2019-03-03T04:23:57.033Z,100769.63
2019-03-03T04:26:47.775Z,100758.31
2019-03-03T04:29:47.416Z,100757.92
2019-03-03T04:32:29.595Z,100748.42
2019-03-03T04:35:07.652Z,100748.32
2019-03-03T04:38:03.874Z,100747.84
2019-03-03T04:40:47.768Z,100748.16
2019-03-03T04:43:35.156Z,100753.53
2019-03-03T04:46:12.472Z,100743.79
2019-03-03T04:49:01.146Z,100736.47
2019-03-03T04:51:47.313Z,100738.00
2019-03-03T04:54:26.357Z,100741.76
2019-03-03T04:57:14.155Z,100743.26
2019-03-03T04:59:58.528Z,100745.31
2019-03-03T05:02:53.806Z,100738.76
2019-03-03T05:05:31.035Z,100744.38
2019-03-03T05:08:21.323Z,100738.47
2019-03-03T05:11:07.363Z,100733.47
2019-03-03T05:13:43.753Z,100739.01
2019-03-03T05:16:29.904Z,100732.16
2019-03-03T05:19:04.020Z,100726.30
2019-03-03T05:21:31.985Z,100732.97
2019-03-03T05:23:59.749Z,100726.86
2019-03-03T05:26:27.756Z,100735.92
2019-03-03T05:28:55.527Z,100736.67
2019-03-03T05:31:23.307Z,100735.14
2019-03-03T05:33:51.244Z,100735.89
2019-03-03T05:36:19.022Z,100745.61
2019-03-03T05:38:46.818Z,100739.81
2019-03-03T05:41:14.760Z,100735.63
2019-03-03T05:43:42.535Z,100743.30
2019-03-03T05:46:10.328Z,100741.69
2019-03-03T05:48:38.266Z,100735.95
2019-03-03T05:51:06.051Z,100737.40
2019-03-03T05:53:34.016Z,100737.40
2019-03-03T05:56:01.917Z,100735.00
2019-03-03T05:58:29.859Z,100739.41
2019-03-03T06:00:57.645Z,100728.63
2019-03-03T06:03:25.603Z,100724.45
2019-03-03T06:05:53.517Z,100724.63
2019-03-03T06:08:21.302Z,100714.30
2019-03-03T06:10:49.211Z,100723.33
2019-03-03T06:13:17.117Z,100722.39
2019-03-03T06:15:44.909Z,100727.08
2019-03-03T06:18:12.930Z,100718.75
2019-03-03T06:20:44.724Z,100719.84
2019-03-03T06:23:12.577Z,100713.55
2019-03-03T06:25:41.563Z,100720.23
2019-03-03T06:28:09.531Z,100715.00
2019-03-03T06:30:37.338Z,100718.31
2019-03-03T06:33:05.213Z,100709.80
2019-03-03T06:35:33.142Z,100706.28
2019-03-03T06:38:00.927Z,100707.67
2019-03-03T06:40:28.762Z,100697.60
2019-03-03T06:42:56.684Z,100707.63
2019-03-03T06:45:24.581Z,100712.25
2019-03-03T06:47:53.370Z,100708.77
2019-03-03T06:50:21.306Z,100700.09
2019-03-03T06:52:49.113Z,100694.72
2019-03-03T06:55:17.016Z,100700.03
2019-03-03T06:57:45.421Z,100698.55
2019-03-03T07:00:15.802Z,100700.35
2019-03-03T07:02:43.597Z,100694.45
2019-03-03T07:05:13.365Z,100699.08
2019-03-03T07:07:41.642Z,100690.45
2019-03-03T07:10:12.199Z,100694.34
2019-03-03T07:12:40.328Z,100690.25
2019-03-03T07:15:13.619Z,100686.02
2019-03-03T07:17:41.406Z,100688.91
2019-03-03T07:20:10.833Z,100689.70
2019-03-03T07:22:38.634Z,100687.57
2019-03-03T07:25:09.354Z,100689.13
2019-03-03T07:27:39.116Z,100684.86
2019-03-03T07:30:12.591Z,100690.14
2019-03-03T07:32:46.048Z,100686.16
2019-03-03T07:35:13.854Z,100687.38
2019-03-03T07:37:42.011Z,100679.14
2019-03-03T07:40:09.936Z,100673.48
2019-03-03T07:42:37.803Z,100686.61
2019-03-03T07:45:07.313Z,100683.16
2019-03-03T07:47:35.107Z,100690.25
2019-03-03T07:50:03.205Z,100687.11
2019-03-03T07:52:32.883Z,100681.64
2019-03-03T07:55:00.803Z,100698.13
2019-03-03T07:57:28.584Z,100688.13
2019-03-03T07:59:56.523Z,100689.11
2019-03-03T08:02:24.486Z,100691.91
2019-03-03T08:04:52.372Z,100687.11
2019-03-03T08:07:20.299Z,100692.00
2019-03-03T08:09:48.075Z,100687.84
2019-03-03T08:12:16.044Z,100694.41
2019-03-03T08:14:44.018Z,100687.41
2019-03-03T08:17:11.810Z,100693.58
2019-03-03T08:19:39.765Z,100697.27
2019-03-03T08:22:07.554Z,100695.13
2019-03-03T08:24:35.331Z,100692.80
2019-03-03T08:27:03.270Z,100695.86
2019-03-03T08:29:31.244Z,100688.41
2019-03-03T08:31:59.037Z,100685.45
2019-03-03T08:34:27.094Z,100684.35
2019-03-03T08:36:54.877Z,100688.09
2019-03-03T08:39:22.951Z,100691.44
2019-03-03T08:41:56.743Z,100694.44
2019-03-03T08:44:50.184Z,100693.96
2019-03-03T08:47:37.131Z,100682.80
2019-03-03T08:50:31.064Z,100688.21
2019-03-03T08:53:10.005Z,100686.10
2019-03-03T08:55:50.151Z,100680.48
2019-03-03T08:58:44.006Z,100667.07
2019-03-03T09:01:50.151Z,100679.53
2019-03-03T09:04:36.568Z,100687.34
2019-03-03T09:07:18.940Z,100677.33
2019-03-03T09:10:02.541Z,100679.89
2019-03-03T09:12:45.556Z,100677.63
2019-03-03T09:15:23.946Z,100677.69
2019-03-03T09:18:17.119Z,100678.52
2019-03-03T09:20:57.946Z,100671.67
2019-03-03T09:23:57.200Z,100685.18
2019-03-03T09:26:59.767Z,100687.89
2019-03-03T09:29:33.008Z,100688.48
2019-03-03T09:32:20.584Z,100686.81
2019-03-03T09:35:16.950Z,100682.69
2019-03-03T09:37:57.971Z,100681.23
2019-03-03T09:40:46.223Z,100684.29
2019-03-03T09:43:33.855Z,100683.30
2019-03-03T09:46:24.574Z,100675.06
2019-03-03T09:49:24.234Z,100681.56
2019-03-03T09:52:20.331Z,100673.89
2019-03-03T09:54:57.741Z,100669.59
2019-03-03T09:57:44.192Z,100661.83
2019-03-03T10:00:44.130Z,100653.45
2019-03-03T10:03:30.294Z,100661.35
2019-03-03T10:06:23.962Z,100657.02
2019-03-03T10:09:11.372Z,100657.80
2019-03-03T10:11:54.956Z,100654.63
2019-03-03T10:14:31.499Z,100639.83
2019-03-03T10:17:09.944Z,100642.83
2019-03-03T10:19:59.795Z,100643.95
2019-03-03T10:22:46.565Z,100641.45
2019-03-03T10:25:40.019Z,100642.73
2019-03-03T10:28:27.695Z,100652.11
2019-03-03T10:31:09.769Z,100642.28
2019-03-03T10:34:15.891Z,100641.71
2019-03-03T10:37:06.264Z,100652.97
2019-03-03T10:39:48.395Z,100645.40
2019-03-03T10:42:21.378Z,100651.00
2019-03-03T10:45:08.992Z,100650.91
2019-03-03T10:47:42.575Z,100649.86
2019-03-03T10:50:16.715Z,100646.69
2019-03-03T10:53:06.352Z,100637.99
2019-03-03T10:55:58.313Z,100648.00
2019-03-03T10:58:40.283Z,100633.75
2019-03-03T11:01:19.596Z,100637.49
2019-03-03T11:03:54.660Z,100639.83
2019-03-03T11:06:34.073Z,100645.74
2019-03-03T11:09:27.416Z,100629.75
2019-03-03T11:12:18.102Z,100637.97
2019-03-03T11:15:05.738Z,100631.03
2019-03-03T11:17:51.913Z,100635.16
2019-03-03T11:20:33.326Z,100626.81
2019-03-03T11:23:16.577Z,100628.67
2019-03-03T11:26:16.280Z,100624.95
2019-03-03T11:29:03.855Z,100622.98
2019-03-03T11:31:56.906Z,100626.55
2019-03-03T11:34:44.509Z,100626.45
2019-03-03T11:37:27.027Z,100623.34
2019-03-03T11:40:02.486Z,100623.08
2019-03-03T11:42:40.994Z,100630.37
2019-03-03T11:45:38.052Z,100621.31
2019-03-03T11:48:24.410Z,100617.94
2019-03-03T11:51:11.131Z,100609.52
2019-03-03T11:54:04.331Z,100609.04
2019-03-03T11:56:50.668Z,100608.77
2019-03-03T11:59:44.299Z,100612.77
2019-03-03T12:02:26.026Z,100603.77
2019-03-03T12:05:16.572Z,100602.63
2019-03-03T12:08:04.014Z,100603.59
2019-03-03T12:11:06.950Z,100594.61
2019-03-03T12:13:43.966Z,100577.91
2019-03-03T12:16:29.955Z,100583.73
2019-03-03T12:19:06.728Z,100576.81
2019-03-03T12:21:54.427Z,100572.58
2019-03-03T12:24:50.929Z,100573.80
2019-03-03T12:27:39.547Z,100563.86
2019-03-03T12:30:28.539Z,100568.73
2019-03-03T12:33:18.250Z,100563.09
2019-03-03T12:35:55.547Z,100554.59
2019-03-03T12:38:39.760Z,100546.00
2019-03-03T12:41:27.307Z,100545.95
2019-03-03T12:44:08.945Z,100539.70
2019-03-03T12:46:45.547Z,100536.96
2019-03-03T12:49:18.940Z,100532.10
2019-03-03T12:52:08.586Z,100525.47
2019-03-03T12:55:08.383Z,100521.72
2019-03-03T12:57:59.051Z,100529.77
2019-03-03T13:00:43.024Z,100523.77
2019-03-03T13:03:28.794Z,100524.62
2019-03-03T13:06:06.381Z,100523.61
2019-03-03T13:09:05.769Z,100511.08
2019-03-03T13:11:39.205Z,100502.34
2019-03-03T13:14:29.484Z,100510.05
2019-03-03T13:17:09.306Z,100499.44
2019-03-03T13:20:15.055Z,100490.73
2019-03-03T13:23:06.439Z,100490.13
2019-03-03T13:25:54.145Z,100477.80
2019-03-03T13:28:40.455Z,100487.40
2019-03-03T13:31:30.432Z,100476.20
2019-03-03T13:34:05.371Z,100472.02
2019-03-03T13:36:48.724Z,100466.53
2019-03-03T13:39:34.687Z,100465.36
2019-03-03T13:42:25.010Z,100453.71
2019-03-03T13:44:53.059Z,100442.47
2019-03-03T13:47:20.867Z,100448.97
2019-03-03T13:49:48.663Z,100429.80
2019-03-03T13:52:16.952Z,100432.20
2019-03-03T13:54:44.829Z,100435.80
2019-03-03T13:57:12.956Z,100420.61
2019-03-03T13:59:41.082Z,100422.45
2019-03-03T14:02:08.866Z,100421.28
2019-03-03T14:04:39.166Z,100415.75
2019-03-03T14:07:07.096Z,100417.34
2019-03-03T14:09:34.943Z,100412.91
2019-03-03T14:12:02.877Z,100410.00
2019-03-03T14:14:30.657Z,100406.67
2019-03-03T14:16:58.634Z,100398.47
2019-03-03T14:19:26.610Z,100403.13
2019-03-03T14:21:54.445Z,100402.87
2019-03-03T14:24:22.753Z,100392.39
2019-03-03T14:26:50.581Z,100392.11
2019-03-03T14:29:18.500Z,100378.63
2019-03-03T14:31:46.486Z,100380.91
2019-03-03T14:34:14.265Z,100368.11
2019-03-03T14:36:43.301Z,100368.28
2019-03-03T14:39:11.405Z,100364.51
2019-03-03T14:41:39.185Z,100353.36
2019-03-03T14:44:06.980Z,100346.53
2019-03-03T14:46:35.030Z,100346.97
2019-03-03T14:49:02.900Z,100342.75
2019-03-03T14:51:30.697Z,100335.92
2019-03-03T14:53:58.773Z,100332.90
2019-03-03T14:56:26.897Z,100329.07
2019-03-03T14:58:54.708Z,100333.62
2019-03-03T15:01:22.770Z,100335.22
2019-03-03T15:03:50.592Z,100324.06
2019-03-03T15:06:24.431Z,100320.88
2019-03-03T15:08:48.553Z,100322.16
2019-03-03T15:11:18.222Z,100314.42
2019-03-03T15:13:46.245Z,100312.70
2019-03-03T15:16:14.225Z,100310.95
2019-03-03T15:18:42.125Z,100294.27
2019-03-03T15:21:10.354Z,100297.98
2019-03-03T15:23:38.223Z,100295.19
2019-03-03T15:26:07.894Z,100305.74
2019-03-03T15:28:35.905Z,100296.08
2019-03-03T15:31:04.076Z,100289.25
2019-03-03T15:33:31.915Z,100288.25
2019-03-03T15:35:59.688Z,100282.23
2019-03-03T15:38:29.465Z,100272.84
2019-03-03T15:40:57.436Z,100268.58
2019-03-03T15:43:25.229Z,100270.48
2019-03-03T15:45:53.249Z,100269.45
2019-03-03T15:48:21.241Z,100269.91
2019-03-03T15:50:49.400Z,100267.91
2019-03-03T15:53:17.266Z,100260.77
2019-03-03T15:55:45.265Z,100249.59
2019-03-03T15:58:14.195Z,100257.72
2019-03-03T16:00:43.215Z,100255.87
2019-03-03T16:03:11.188Z,100249.78
2019-03-03T16:05:38.997Z,100245.42
2019-03-03T16:08:06.954Z,100247.05
2019-03-03T16:10:34.928Z,100245.25
2019-03-03T16:13:03.885Z,100240.30
2019-03-03T16:15:31.928Z,100233.33
2019-03-03T16:17:59.887Z,100225.08
2019-03-03T16:20:27.993Z,100227.25
2019-03-03T16:22:57.769Z,100220.57
2019-03-03T16:25:26.658Z,100216.70
2019-03-03T16:27:54.681Z,100206.58
2019-03-03T16:30:22.808Z,100207.25
2019-03-03T16:32:52.286Z,100204.06
2019-03-03T16:35:20.135Z,100196.68
2019-03-03T16:37:48.166Z,100193.11
2019-03-03T16:40:21.026Z,100191.46
2019-03-03T16:42:49.300Z,100187.53
2019-03-03T16:45:17.607Z,100192.10
2019-03-03T16:47:45.466Z,100183.22
2019-03-03T16:50:15.587Z,100176.42
2019-03-03T16:52:43.742Z,100176.61
2019-03-03T16:55:12.864Z,100169.45
2019-03-03T16:57:40.672Z,100163.16
2019-03-03T17:00:13.307Z,100158.95
2019-03-03T17:02:41.144Z,100155.13
2019-03-03T17:05:10.460Z,100156.11
2019-03-03T17:07:38.537Z,100158.58
2019-03-03T17:10:06.995Z,100141.38
2019-03-03T17:12:34.992Z,100143.28
2019-03-03T17:15:05.401Z,100138.41
2019-03-03T17:17:34.673Z,100127.92
2019-03-03T17:20:05.024Z,100117.80
2019-03-03T17:22:33.179Z,100124.20
2019-03-03T17:25:01.155Z,100119.97
2019-03-03T17:27:30.059Z,100113.75
2019-03-03T17:29:58.248Z,100104.11
2019-03-03T17:32:26.153Z,100099.84
2019-03-03T17:34:54.367Z,100096.69
2019-03-03T17:37:24.257Z,100079.53
2019-03-03T17:39:52.091Z,100091.03
2019-03-03T17:42:19.953Z,100072.70
2019-03-03T17:44:50.771Z,100072.47
2019-03-03T17:47:18.729Z,100063.43
2019-03-03T17:49:46.704Z,100063.69
2019-03-03T17:52:14.811Z,100056.20
2019-03-03T17:54:42.758Z,100059.62
2019-03-03T17:57:10.846Z,100061.70
2019-03-03T17:59:39.078Z,100055.30
2019-03-03T18:02:07.172Z,100063.28
2019-03-03T18:04:35.176Z,100059.62
2019-03-03T18:07:03.437Z,100057.42
2019-03-03T18:09:31.251Z,100047.86
2019-03-03T18:11:59.299Z,100052.52
2019-03-03T18:14:28.051Z,100038.98
2019-03-03T18:16:56.248Z,100032.73
2019-03-03T18:19:26.124Z,100020.73
2019-03-03T18:21:53.920Z,100008.38
2019-03-03T18:24:21.753Z,99997.29
2019-03-03T18:26:49.723Z,100003.92
2019-03-03T18:29:17.920Z,99995.59
2019-03-03T18:31:46.180Z,99988.89
2019-03-03T18:34:14.278Z,99983.84
2019-03-03T18:36:42.067Z,99979.38
2019-03-03T18:39:11.281Z,99972.67
2019-03-03T18:41:39.115Z,99971.27
2019-03-03T18:44:08.276Z,99964.97
2019-03-03T18:46:36.135Z,99952.41
2019-03-03T18:49:04.135Z,99958.75
2019-03-03T18:51:32.094Z,99946.73
2019-03-03T18:53:59.902Z,99950.87
2019-03-03T18:56:27.797Z,99941.77
2019-03-03T18:58:55.829Z,99938.84
2019-03-03T19:01:23.789Z,99936.53
2019-03-03T19:03:51.700Z,99928.66
2019-03-03T19:06:19.836Z,99934.84
2019-03-03T19:08:48.858Z,99934.16
2019-03-03T19:11:16.803Z,99919.38
2019-03-03T19:13:44.858Z,99914.29
2019-03-03T19:16:12.755Z,99911.62
2019-03-03T19:18:40.586Z,99907.84
2019-03-03T19:21:08.695Z,99905.97
2019-03-03T19:23:36.596Z,99913.92
2019-03-03T19:26:05.577Z,99911.03
2019-03-03T19:28:33.746Z,99893.81
2019-03-03T19:31:01.620Z,99894.79
2019-03-03T19:33:42.339Z,99884.66
2019-03-03T19:36:10.372Z,99898.35
2019-03-03T19:38:38.223Z,99895.89
2019-03-03T19:41:06.010Z,99894.75
2019-03-03T19:43:34.076Z,99892.48
2019-03-03T19:46:02.654Z,99885.65
2019-03-03T19:48:31.624Z,99868.98
2019-03-03T19:50:59.631Z,99878.73
2019-03-03T19:53:27.442Z,99851.00
2019-03-03T19:55:55.256Z,99848.25
2019-03-03T19:58:23.262Z,99850.15
2019-03-03T20:00:52.246Z,99855.34
2019-03-03T20:03:20.329Z,99843.17
2019-03-03T20:05:48.439Z,99848.89
2019-03-03T20:08:16.231Z,99847.09
2019-03-03T20:10:44.285Z,99840.13
2019-03-03T20:13:12.325Z,99840.84
2019-03-03T20:15:40.191Z,99844.75
2019-03-03T20:18:08.664Z,99837.16
2019-03-03T20:20:36.516Z,99816.90
2019-03-03T20:23:05.386Z,99822.20
2019-03-03T20:25:33.405Z,99820.31
2019-03-03T20:28:02.523Z,99820.20
2019-03-03T20:30:30.372Z,99806.96
2019-03-03T20:32:58.355Z,99805.42
2019-03-03T20:35:27.524Z,99804.70
2019-03-03T20:37:55.377Z,99803.45
2019-03-03T20:40:23.395Z,99805.64
2019-03-03T20:42:51.552Z,99775.73
2019-03-03T20:45:21.921Z,99782.42
2019-03-03T20:47:50.003Z,99786.48
2019-03-03T20:50:19.643Z,99786.24
2019-03-03T20:52:49.031Z,99773.13
2019-03-03T20:55:18.574Z,99767.99
2019-03-03T20:57:46.489Z,99760.94
2019-03-03T21:00:20.666Z,99759.17
2019-03-03T21:02:48.662Z,99753.55
2019-03-03T21:05:16.450Z,99744.16
2019-03-03T21:07:51.308Z,99736.98
2019-03-03T21:10:17.028Z,99748.67
2019-03-03T21:12:44.969Z,99742.23
2019-03-03T21:15:13.055Z,99734.97
2019-03-03T21:17:40.943Z,99747.23
2019-03-03T21:20:11.700Z,99744.39
2019-03-03T21:22:39.488Z,99733.75
2019-03-03T21:25:08.468Z,99728.05
2019-03-03T21:27:36.496Z,99721.59
2019-03-03T21:30:09.679Z,99716.34
2019-03-03T21:32:37.656Z,99713.70
2019-03-03T21:35:06.518Z,99692.61
2019-03-03T21:37:34.291Z,99689.98
2019-03-03T21:40:02.185Z,99675.28
2019-03-03T21:42:29.962Z,99672.09
2019-03-03T21:44:57.861Z,99676.70
2019-03-03T21:47:25.786Z,99664.42
2019-03-03T21:49:53.570Z,99654.52
2019-03-03T21:52:21.614Z,99636.59
2019-03-03T21:54:49.643Z,99621.93
2019-03-03T21:57:17.450Z,99601.66
2019-03-03T21:59:45.363Z,99587.76
2019-03-03T22:02:13.300Z,99614.33
2019-03-03T22:04:41.091Z,99612.91
2019-03-03T22:07:09.030Z,99616.84
2019-03-03T22:09:37.138Z,99625.16
2019-03-03T22:12:04.925Z,99623.26
2019-03-03T22:14:32.719Z,99619.41
2019-03-03T22:17:00.636Z,99626.23
2019-03-03T22:19:28.428Z,99620.98
2019-03-03T22:21:56.214Z,99617.84
2019-03-03T22:24:24.127Z,99611.81
2019-03-03T22:26:52.043Z,99607.95
2019-03-03T22:29:19.838Z,99595.08
2019-03-03T22:31:47.643Z,99605.20
2019-03-03T22:34:15.582Z,99586.17
2019-03-03T22:36:44.597Z,99580.53
2019-03-03T22:39:12.414Z,99575.10
2019-03-03T22:41:40.396Z,99562.56
2019-03-03T22:44:08.317Z,99551.36
2019-03-03T22:46:36.234Z,99545.26
2019-03-03T22:49:04.017Z,99561.25
2019-03-03T22:51:31.931Z,99552.16
2019-03-03T22:53:59.964Z,99555.48
2019-03-03T22:56:27.781Z,99549.23
2019-03-03T22:58:55.573Z,99556.02
2019-03-03T23:01:32.017Z,99554.87
2019-03-03T23:04:53.069Z,99549.95
2019-03-03T23:07:57.912Z,99534.95
2019-03-03T23:11:23.025Z,99541.37
2019-03-03T23:14:37.983Z,99525.00
2019-03-03T23:17:41.670Z,99534.08
2019-03-03T23:21:01.902Z,99510.09
2019-03-03T23:24:21.972Z,99547.70
2019-03-03T23:26:51.048Z,99520.83
2019-03-03T23:29:18.971Z,99503.16
2019-03-03T23:31:46.768Z,99503.95
2019-03-03T23:34:14.949Z,99492.86
2019-03-03T23:36:42.936Z,99513.44
2019-03-03T23:39:14.007Z,99509.83
2019-03-03T23:41:41.828Z,99489.87
2019-03-03T23:44:09.777Z,99482.91
2019-03-03T23:46:37.564Z,99476.76
2019-03-03T23:49:05.345Z,99468.59
2019-03-03T23:51:33.294Z,99483.41
2019-03-03T23:54:01.674Z,99463.28
2019-03-03T23:56:30.578Z,99459.04
2019-03-03T23:58:58.550Z,99432.95
